sensor_id;sensor_type;location;lat;lon;timestamp;temperature;humidity
74336;DHT22;62755;-33.398;-70.572;2022-09-04T00:00:10;22.50;35.30
74336;DHT22;62755;-33.398;-70.572;2022-09-04T00:02:58;22.50;34.90
74336;DHT22;62755;-33.398;-70.572;2022-09-04T00:05:32;22.50;35.20
74336;DHT22;62755;-33.398;-70.572;2022-09-04T00:08:16;22.50;34.90
74336;DHT22;62755;-33.398;-70.572;2022-09-04T00:10:53;22.50;35.10
74336;DHT22;62755;-33.398;-70.572;2022-09-04T00:13:27;22.50;34.90
74336;DHT22;62755;-33.398;-70.572;2022-09-04T00:16:00;22.50;34.80
74336;DHT22;62755;-33.398;-70.572;2022-09-04T00:18:37;22.50;34.90
74336;DHT22;62755;-33.398;-70.572;2022-09-04T00:21:10;22.50;35.30
74336;DHT22;62755;-33.398;-70.572;2022-09-04T00:23:49;22.50;35.70
74336;DHT22;62755;-33.398;-70.572;2022-09-04T00:26:35;22.50;35.20
74336;DHT22;62755;-33.398;-70.572;2022-09-04T00:29:11;22.50;34.90
74336;DHT22;62755;-33.398;-70.572;2022-09-04T00:31:46;22.50;35.20
74336;DHT22;62755;-33.398;-70.572;2022-09-04T00:34:36;22.50;34.80
74336;DHT22;62755;-33.398;-70.572;2022-09-04T00:37:09;22.50;35.00
74336;DHT22;62755;-33.398;-70.572;2022-09-04T00:39:43;22.50;34.30
74336;DHT22;62755;-33.398;-70.572;2022-09-04T00:42:27;22.50;34.20
74336;DHT22;62755;-33.398;-70.572;2022-09-04T00:45:11;22.50;33.80
74336;DHT22;62755;-33.398;-70.572;2022-09-04T00:48:16;22.50;33.70
74336;DHT22;62755;-33.398;-70.572;2022-09-04T00:51:05;22.50;33.60
74336;DHT22;62755;-33.398;-70.572;2022-09-04T00:53:56;22.40;33.60
74336;DHT22;62755;-33.398;-70.572;2022-09-04T01:02:31;22.20;32.20
74336;DHT22;62755;-33.398;-70.572;2022-09-04T01:05:10;22.10;32.20
74336;DHT22;62755;-33.398;-70.572;2022-09-04T01:07:48;22.00;31.80
74336;DHT22;62755;-33.398;-70.572;2022-09-04T01:10:32;22.00;30.90
74336;DHT22;62755;-33.398;-70.572;2022-09-04T01:13:09;21.80;31.70
74336;DHT22;62755;-33.398;-70.572;2022-09-04T01:15:44;21.70;31.20
74336;DHT22;62755;-33.398;-70.572;2022-09-04T01:18:18;21.60;30.90
74336;DHT22;62755;-33.398;-70.572;2022-09-04T01:21:23;21.50;30.70
74336;DHT22;62755;-33.398;-70.572;2022-09-04T01:24:17;21.40;30.60
74336;DHT22;62755;-33.398;-70.572;2022-09-04T01:26:54;21.30;30.90
74336;DHT22;62755;-33.398;-70.572;2022-09-04T01:29:31;21.30;30.60
74336;DHT22;62755;-33.398;-70.572;2022-09-04T01:32:11;21.10;30.20
74336;DHT22;62755;-33.398;-70.572;2022-09-04T01:34:52;20.80;30.80
74336;DHT22;62755;-33.398;-70.572;2022-09-04T01:37:39;20.80;30.70
74336;DHT22;62755;-33.398;-70.572;2022-09-04T01:40:26;20.70;30.70
74336;DHT22;62755;-33.398;-70.572;2022-09-04T01:43:02;20.60;30.00
74336;DHT22;62755;-33.398;-70.572;2022-09-04T01:45:42;20.50;30.80
74336;DHT22;62755;-33.398;-70.572;2022-09-04T01:48:16;20.50;30.80
74336;DHT22;62755;-33.398;-70.572;2022-09-04T01:50:50;20.50;30.50
74336;DHT22;62755;-33.398;-70.572;2022-09-04T01:53:25;20.30;31.40
74336;DHT22;62755;-33.398;-70.572;2022-09-04T01:56:05;20.50;31.40
74336;DHT22;62755;-33.398;-70.572;2022-09-04T01:58:46;20.40;31.80
74336;DHT22;62755;-33.398;-70.572;2022-09-04T02:01:23;20.50;31.70
74336;DHT22;62755;-33.398;-70.572;2022-09-04T02:03:59;20.40;32.80
74336;DHT22;62755;-33.398;-70.572;2022-09-04T02:06:45;20.50;32.90
74336;DHT22;62755;-33.398;-70.572;2022-09-04T02:09:33;20.50;33.70
74336;DHT22;62755;-33.398;-70.572;2022-09-04T02:12:10;20.50;33.80
74336;DHT22;62755;-33.398;-70.572;2022-09-04T02:14:52;20.60;34.40
74336;DHT22;62755;-33.398;-70.572;2022-09-04T02:17:32;20.70;34.60
74336;DHT22;62755;-33.398;-70.572;2022-09-04T02:20:17;20.80;33.90
74336;DHT22;62755;-33.398;-70.572;2022-09-04T02:22:57;20.70;34.10
74336;DHT22;62755;-33.398;-70.572;2022-09-04T02:25:31;20.60;34.10
74336;DHT22;62755;-33.398;-70.572;2022-09-04T02:28:14;20.50;34.00
74336;DHT22;62755;-33.398;-70.572;2022-09-04T02:30:53;20.50;34.40
74336;DHT22;62755;-33.398;-70.572;2022-09-04T02:33:30;20.40;34.30
74336;DHT22;62755;-33.398;-70.572;2022-09-04T02:36:09;20.30;34.60
74336;DHT22;62755;-33.398;-70.572;2022-09-04T02:38:48;20.30;35.30
74336;DHT22;62755;-33.398;-70.572;2022-09-04T02:41:25;20.30;35.00
74336;DHT22;62755;-33.398;-70.572;2022-09-04T02:44:14;20.30;34.60
74336;DHT22;62755;-33.398;-70.572;2022-09-04T02:46:57;20.30;34.90
74336;DHT22;62755;-33.398;-70.572;2022-09-04T02:49:36;20.30;35.10
74336;DHT22;62755;-33.398;-70.572;2022-09-04T02:52:18;20.30;35.10
74336;DHT22;62755;-33.398;-70.572;2022-09-04T02:55:06;20.30;34.90
74336;DHT22;62755;-33.398;-70.572;2022-09-04T02:57:45;20.30;34.80
74336;DHT22;62755;-33.398;-70.572;2022-09-04T03:00:24;20.20;34.60
74336;DHT22;62755;-33.398;-70.572;2022-09-04T03:03:03;20.30;34.40
74336;DHT22;62755;-33.398;-70.572;2022-09-04T03:05:40;20.30;34.40
74336;DHT22;62755;-33.398;-70.572;2022-09-04T03:08:12;20.30;34.10
74336;DHT22;62755;-33.398;-70.572;2022-09-04T03:10:45;20.30;34.00
74336;DHT22;62755;-33.398;-70.572;2022-09-04T03:13:22;20.30;33.70
74336;DHT22;62755;-33.398;-70.572;2022-09-04T03:15:57;20.30;33.80
74336;DHT22;62755;-33.398;-70.572;2022-09-04T03:18:50;20.30;33.80
74336;DHT22;62755;-33.398;-70.572;2022-09-04T03:21:26;20.40;34.60
74336;DHT22;62755;-33.398;-70.572;2022-09-04T03:24:03;20.50;34.40
74336;DHT22;62755;-33.398;-70.572;2022-09-04T03:26:36;20.50;34.40
74336;DHT22;62755;-33.398;-70.572;2022-09-04T03:29:12;20.50;34.20
74336;DHT22;62755;-33.398;-70.572;2022-09-04T03:31:54;20.50;34.40
74336;DHT22;62755;-33.398;-70.572;2022-09-04T03:34:40;20.50;34.40
74336;DHT22;62755;-33.398;-70.572;2022-09-04T03:37:28;20.40;34.10
74336;DHT22;62755;-33.398;-70.572;2022-09-04T03:40:11;20.40;33.50
74336;DHT22;62755;-33.398;-70.572;2022-09-04T03:42:51;20.30;33.70
74336;DHT22;62755;-33.398;-70.572;2022-09-04T03:45:32;20.30;33.30
74336;DHT22;62755;-33.398;-70.572;2022-09-04T03:48:13;20.30;32.90
74336;DHT22;62755;-33.398;-70.572;2022-09-04T03:50:55;20.10;33.40
74336;DHT22;62755;-33.398;-70.572;2022-09-04T03:53:31;20.00;32.60
74336;DHT22;62755;-33.398;-70.572;2022-09-04T03:56:21;19.80;32.50
74336;DHT22;62755;-33.398;-70.572;2022-09-04T03:59:01;19.60;33.10
74336;DHT22;62755;-33.398;-70.572;2022-09-04T04:01:40;19.60;33.20
74336;DHT22;62755;-33.398;-70.572;2022-09-04T04:04:39;19.70;32.80
74336;DHT22;62755;-33.398;-70.572;2022-09-04T04:07:23;19.40;31.50
74336;DHT22;62755;-33.398;-70.572;2022-09-04T04:10:16;19.10;31.90
74336;DHT22;62755;-33.398;-70.572;2022-09-04T04:13:10;19.20;32.30
74336;DHT22;62755;-33.398;-70.572;2022-09-04T04:15:55;19.30;32.40
74336;DHT22;62755;-33.398;-70.572;2022-09-04T04:18:50;19.40;32.40
74336;DHT22;62755;-33.398;-70.572;2022-09-04T04:21:32;19.50;31.90
74336;DHT22;62755;-33.398;-70.572;2022-09-04T04:24:44;19.50;32.10
74336;DHT22;62755;-33.398;-70.572;2022-09-04T04:27:33;19.50;31.90
74336;DHT22;62755;-33.398;-70.572;2022-09-04T04:30:06;19.40;31.90
74336;DHT22;62755;-33.398;-70.572;2022-09-04T04:35:37;19.30;32.00
74336;DHT22;62755;-33.398;-70.572;2022-09-04T04:38:17;19.30;31.80
74336;DHT22;62755;-33.398;-70.572;2022-09-04T04:41:01;19.30;31.60
74336;DHT22;62755;-33.398;-70.572;2022-09-04T04:43:40;19.30;31.70
74336;DHT22;62755;-33.398;-70.572;2022-09-04T04:46:17;19.30;31.70
74336;DHT22;62755;-33.398;-70.572;2022-09-04T04:49:13;19.40;31.50
74336;DHT22;62755;-33.398;-70.572;2022-09-04T04:52:07;19.40;31.40
74336;DHT22;62755;-33.398;-70.572;2022-09-04T04:55:10;19.40;31.20
74336;DHT22;62755;-33.398;-70.572;2022-09-04T04:57:54;19.40;31.10
74336;DHT22;62755;-33.398;-70.572;2022-09-04T05:00:31;19.40;31.20
74336;DHT22;62755;-33.398;-70.572;2022-09-04T05:03:06;19.40;30.80
74336;DHT22;62755;-33.398;-70.572;2022-09-04T05:05:51;19.40;31.10
74336;DHT22;62755;-33.398;-70.572;2022-09-04T05:08:38;19.40;30.80
74336;DHT22;62755;-33.398;-70.572;2022-09-04T05:11:17;19.40;30.80
74336;DHT22;62755;-33.398;-70.572;2022-09-04T05:14:02;19.30;30.40
74336;DHT22;62755;-33.398;-70.572;2022-09-04T05:16:40;19.20;30.60
74336;DHT22;62755;-33.398;-70.572;2022-09-04T05:19:20;19.10;30.70
74336;DHT22;62755;-33.398;-70.572;2022-09-04T05:21:58;19.00;30.80
74336;DHT22;62755;-33.398;-70.572;2022-09-04T05:24:35;19.00;30.80
74336;DHT22;62755;-33.398;-70.572;2022-09-04T05:27:11;19.00;31.00
74336;DHT22;62755;-33.398;-70.572;2022-09-04T05:29:50;18.90;31.20
74336;DHT22;62755;-33.398;-70.572;2022-09-04T05:32:21;18.90;31.30
74336;DHT22;62755;-33.398;-70.572;2022-09-04T05:35:00;18.90;30.90
74336;DHT22;62755;-33.398;-70.572;2022-09-04T05:37:39;18.80;31.10
74336;DHT22;62755;-33.398;-70.572;2022-09-04T05:40:21;18.80;31.10
74336;DHT22;62755;-33.398;-70.572;2022-09-04T05:43:02;18.80;31.20
74336;DHT22;62755;-33.398;-70.572;2022-09-04T05:45:47;18.70;31.20
74336;DHT22;62755;-33.398;-70.572;2022-09-04T05:48:24;18.70;31.40
74336;DHT22;62755;-33.398;-70.572;2022-09-04T05:51:06;18.60;31.40
74336;DHT22;62755;-33.398;-70.572;2022-09-04T05:54:06;18.60;31.60
74336;DHT22;62755;-33.398;-70.572;2022-09-04T05:56:50;18.60;31.60
74336;DHT22;62755;-33.398;-70.572;2022-09-04T05:59:46;18.50;31.60
74336;DHT22;62755;-33.398;-70.572;2022-09-04T06:08:42;18.30;32.00
74336;DHT22;62755;-33.398;-70.572;2022-09-04T06:11:43;18.20;32.80
74336;DHT22;62755;-33.398;-70.572;2022-09-04T06:14:34;18.20;32.50
74336;DHT22;62755;-33.398;-70.572;2022-09-04T06:17:19;18.10;32.80
74336;DHT22;62755;-33.398;-70.572;2022-09-04T06:20:04;18.00;31.60
74336;DHT22;62755;-33.398;-70.572;2022-09-04T06:22:50;18.10;31.50
74336;DHT22;62755;-33.398;-70.572;2022-09-04T06:25:41;18.20;31.40
74336;DHT22;62755;-33.398;-70.572;2022-09-04T06:28:33;18.20;31.20
74336;DHT22;62755;-33.398;-70.572;2022-09-04T06:31:10;18.20;31.10
74336;DHT22;62755;-33.398;-70.572;2022-09-04T06:33:53;18.20;30.70
74336;DHT22;62755;-33.398;-70.572;2022-09-04T06:36:45;18.20;30.40
74336;DHT22;62755;-33.398;-70.572;2022-09-04T06:39:41;18.10;30.40
74336;DHT22;62755;-33.398;-70.572;2022-09-04T06:42:27;18.10;30.60
74336;DHT22;62755;-33.398;-70.572;2022-09-04T06:45:18;18.10;31.00
74336;DHT22;62755;-33.398;-70.572;2022-09-04T06:48:00;18.20;30.80
74336;DHT22;62755;-33.398;-70.572;2022-09-04T06:50:37;18.20;30.50
74336;DHT22;62755;-33.398;-70.572;2022-09-04T06:53:19;18.20;30.70
74336;DHT22;62755;-33.398;-70.572;2022-09-04T06:56:02;18.20;30.90
74336;DHT22;62755;-33.398;-70.572;2022-09-04T06:58:57;18.20;30.80
74336;DHT22;62755;-33.398;-70.572;2022-09-04T07:01:37;18.10;30.80
74336;DHT22;62755;-33.398;-70.572;2022-09-04T07:04:23;18.10;30.90
74336;DHT22;62755;-33.398;-70.572;2022-09-04T07:07:04;18.10;31.00
74336;DHT22;62755;-33.398;-70.572;2022-09-04T07:09:39;18.10;30.90
74336;DHT22;62755;-33.398;-70.572;2022-09-04T07:12:49;18.00;30.90
74336;DHT22;62755;-33.398;-70.572;2022-09-04T07:18:52;18.00;31.20
74336;DHT22;62755;-33.398;-70.572;2022-09-04T07:21:31;18.00;31.00
74336;DHT22;62755;-33.398;-70.572;2022-09-04T07:24:07;17.90;31.00
74336;DHT22;62755;-33.398;-70.572;2022-09-04T07:26:46;17.80;31.10
74336;DHT22;62755;-33.398;-70.572;2022-09-04T07:29:31;17.90;31.10
74336;DHT22;62755;-33.398;-70.572;2022-09-04T07:32:03;18.00;30.70
74336;DHT22;62755;-33.398;-70.572;2022-09-04T07:34:42;18.00;30.40
74336;DHT22;62755;-33.398;-70.572;2022-09-04T07:37:22;18.00;30.40
74336;DHT22;62755;-33.398;-70.572;2022-09-04T07:40:01;17.80;30.40
74336;DHT22;62755;-33.398;-70.572;2022-09-04T07:42:40;17.80;30.50
74336;DHT22;62755;-33.398;-70.572;2022-09-04T07:45:19;17.80;30.70
74336;DHT22;62755;-33.398;-70.572;2022-09-04T07:47:56;17.80;30.60
74336;DHT22;62755;-33.398;-70.572;2022-09-04T07:50:32;17.70;30.70
74336;DHT22;62755;-33.398;-70.572;2022-09-04T07:53:15;17.70;30.90
74336;DHT22;62755;-33.398;-70.572;2022-09-04T07:55:46;17.60;31.00
74336;DHT22;62755;-33.398;-70.572;2022-09-04T07:58:40;17.60;31.00
74336;DHT22;62755;-33.398;-70.572;2022-09-04T08:01:40;17.50;31.00
74336;DHT22;62755;-33.398;-70.572;2022-09-04T08:04:27;17.40;31.00
74336;DHT22;62755;-33.398;-70.572;2022-09-04T08:07:06;17.30;31.10
74336;DHT22;62755;-33.398;-70.572;2022-09-04T08:09:51;17.20;31.10
74336;DHT22;62755;-33.398;-70.572;2022-09-04T08:12:53;17.20;31.00
74336;DHT22;62755;-33.398;-70.572;2022-09-04T08:15:34;17.20;31.10
74336;DHT22;62755;-33.398;-70.572;2022-09-04T08:18:35;17.20;31.00
74336;DHT22;62755;-33.398;-70.572;2022-09-04T08:21:16;17.30;30.50
74336;DHT22;62755;-33.398;-70.572;2022-09-04T08:24:07;17.40;30.20
74336;DHT22;62755;-33.398;-70.572;2022-09-04T08:26:47;17.40;30.10
74336;DHT22;62755;-33.398;-70.572;2022-09-04T08:29:33;17.40;30.20
74336;DHT22;62755;-33.398;-70.572;2022-09-04T08:32:24;17.40;30.10
74336;DHT22;62755;-33.398;-70.572;2022-09-04T08:35:08;17.40;30.20
74336;DHT22;62755;-33.398;-70.572;2022-09-04T08:37:50;17.30;30.50
74336;DHT22;62755;-33.398;-70.572;2022-09-04T08:43:32;17.20;30.50
74336;DHT22;62755;-33.398;-70.572;2022-09-04T08:46:37;17.20;30.40
74336;DHT22;62755;-33.398;-70.572;2022-09-04T08:56:00;17.20;30.60
74336;DHT22;62755;-33.398;-70.572;2022-09-04T09:02:02;17.20;30.80
74336;DHT22;62755;-33.398;-70.572;2022-09-04T09:08:04;17.00;31.40
74336;DHT22;62755;-33.398;-70.572;2022-09-04T09:10:37;16.90;31.20
74336;DHT22;62755;-33.398;-70.572;2022-09-04T09:13:44;16.90;30.80
74336;DHT22;62755;-33.398;-70.572;2022-09-04T09:16:23;16.90;30.40
74336;DHT22;62755;-33.398;-70.572;2022-09-04T09:19:18;16.90;30.40
74336;DHT22;62755;-33.398;-70.572;2022-09-04T09:22:06;16.90;30.50
74336;DHT22;62755;-33.398;-70.572;2022-09-04T09:25:14;16.90;30.50
74336;DHT22;62755;-33.398;-70.572;2022-09-04T09:31:39;16.80;30.10
74336;DHT22;62755;-33.398;-70.572;2022-09-04T09:37:38;16.80;30.10
74336;DHT22;62755;-33.398;-70.572;2022-09-04T09:40:35;16.80;30.00
74336;DHT22;62755;-33.398;-70.572;2022-09-04T09:43:32;16.80;30.00
74336;DHT22;62755;-33.398;-70.572;2022-09-04T09:49:57;16.90;30.00
74336;DHT22;62755;-33.398;-70.572;2022-09-04T09:53:07;16.90;30.00
74336;DHT22;62755;-33.398;-70.572;2022-09-04T09:56:01;16.90;29.40
74336;DHT22;62755;-33.398;-70.572;2022-09-04T09:59:16;17.00;29.00
74336;DHT22;62755;-33.398;-70.572;2022-09-04T10:02:20;17.00;29.10
74336;DHT22;62755;-33.398;-70.572;2022-09-04T10:11:20;16.90;29.20
74336;DHT22;62755;-33.398;-70.572;2022-09-04T10:20:41;16.90;29.70
74336;DHT22;62755;-33.398;-70.572;2022-09-04T10:23:42;16.90;29.50
74336;DHT22;62755;-33.398;-70.572;2022-09-04T10:29:43;16.90;29.70
74336;DHT22;62755;-33.398;-70.572;2022-09-04T10:32:46;16.90;29.70
74336;DHT22;62755;-33.398;-70.572;2022-09-04T10:35:22;16.90;29.80
74336;DHT22;62755;-33.398;-70.572;2022-09-04T10:38:26;16.80;29.50
74336;DHT22;62755;-33.398;-70.572;2022-09-04T10:41:29;16.70;29.30
74336;DHT22;62755;-33.398;-70.572;2022-09-04T10:44:19;16.40;29.30
74336;DHT22;62755;-33.398;-70.572;2022-09-04T10:46:58;16.40;29.40
74336;DHT22;62755;-33.398;-70.572;2022-09-04T10:49:57;16.20;30.70
74336;DHT22;62755;-33.398;-70.572;2022-09-04T10:56:10;16.20;32.50
74336;DHT22;62755;-33.398;-70.572;2022-09-04T10:59:08;16.30;31.20
74336;DHT22;62755;-33.398;-70.572;2022-09-04T11:02:09;16.40;30.90
74336;DHT22;62755;-33.398;-70.572;2022-09-04T11:08:09;16.50;30.70
74336;DHT22;62755;-33.398;-70.572;2022-09-04T11:11:02;16.50;30.40
74336;DHT22;62755;-33.398;-70.572;2022-09-04T11:14:09;16.60;30.50
74336;DHT22;62755;-33.398;-70.572;2022-09-04T11:26:50;16.50;32.20
74336;DHT22;62755;-33.398;-70.572;2022-09-04T11:29:38;16.60;31.70
74336;DHT22;62755;-33.398;-70.572;2022-09-04T11:32:30;16.60;32.20
74336;DHT22;62755;-33.398;-70.572;2022-09-04T11:35:33;16.70;32.70
74336;DHT22;62755;-33.398;-70.572;2022-09-04T11:38:13;16.70;33.00
74336;DHT22;62755;-33.398;-70.572;2022-09-04T11:43:56;16.90;32.60
74336;DHT22;62755;-33.398;-70.572;2022-09-04T11:49:57;17.00;31.50
74336;DHT22;62755;-33.398;-70.572;2022-09-04T11:52:41;17.00;30.80
74336;DHT22;62755;-33.398;-70.572;2022-09-04T11:55:37;17.00;30.70
74336;DHT22;62755;-33.398;-70.572;2022-09-04T12:01:25;17.20;30.70
74336;DHT22;62755;-33.398;-70.572;2022-09-04T12:04:15;17.20;30.00
74336;DHT22;62755;-33.398;-70.572;2022-09-04T12:07:01;17.30;29.10
74336;DHT22;62755;-33.398;-70.572;2022-09-04T12:28:33;17.10;30.00
74336;DHT22;62755;-33.398;-70.572;2022-09-04T12:31:19;17.20;30.00
74336;DHT22;62755;-33.398;-70.572;2022-09-04T12:37:14;17.20;29.70
74336;DHT22;62755;-33.398;-70.572;2022-09-04T12:43:10;17.20;29.70
74336;DHT22;62755;-33.398;-70.572;2022-09-04T12:45:50;17.10;29.80
74336;DHT22;62755;-33.398;-70.572;2022-09-04T12:48:29;17.20;29.80
74336;DHT22;62755;-33.398;-70.572;2022-09-04T12:51:08;17.20;29.90
74336;DHT22;62755;-33.398;-70.572;2022-09-04T12:53:57;17.20;30.00
74336;DHT22;62755;-33.398;-70.572;2022-09-04T12:56:37;17.20;30.10
74336;DHT22;62755;-33.398;-70.572;2022-09-04T12:59:31;17.40;30.10
74336;DHT22;62755;-33.398;-70.572;2022-09-04T13:02:13;17.40;29.80
74336;DHT22;62755;-33.398;-70.572;2022-09-04T13:04:54;17.50;29.10
74336;DHT22;62755;-33.398;-70.572;2022-09-04T13:07:39;17.50;29.10
74336;DHT22;62755;-33.398;-70.572;2022-09-04T13:10:21;17.60;29.10
74336;DHT22;62755;-33.398;-70.572;2022-09-04T13:12:59;17.80;29.10
74336;DHT22;62755;-33.398;-70.572;2022-09-04T13:15:39;17.90;29.00
74336;DHT22;62755;-33.398;-70.572;2022-09-04T13:18:22;18.00;28.90
74336;DHT22;62755;-33.398;-70.572;2022-09-04T13:21:02;18.10;29.00
74336;DHT22;62755;-33.398;-70.572;2022-09-04T13:23:48;18.30;28.90
74336;DHT22;62755;-33.398;-70.572;2022-09-04T13:29:19;18.50;28.70
74336;DHT22;62755;-33.398;-70.572;2022-09-04T13:32:06;18.50;28.80
74336;DHT22;62755;-33.398;-70.572;2022-09-04T13:34:52;18.60;28.60
74336;DHT22;62755;-33.398;-70.572;2022-09-04T13:37:31;18.80;28.70
74336;DHT22;62755;-33.398;-70.572;2022-09-04T13:43:27;18.90;28.50
74336;DHT22;62755;-33.398;-70.572;2022-09-04T13:46:01;19.00;27.60
74336;DHT22;62755;-33.398;-70.572;2022-09-04T13:48:34;19.10;28.30
74336;DHT22;62755;-33.398;-70.572;2022-09-04T13:51:11;19.10;28.60
74336;DHT22;62755;-33.398;-70.572;2022-09-04T13:53:56;19.20;28.70
74336;DHT22;62755;-33.398;-70.572;2022-09-04T13:56:31;19.40;28.70
74336;DHT22;62755;-33.398;-70.572;2022-09-04T13:59:05;19.40;28.80
74336;DHT22;62755;-33.398;-70.572;2022-09-04T14:01:37;19.50;28.70
74336;DHT22;62755;-33.398;-70.572;2022-09-04T14:04:15;19.60;28.70
74336;DHT22;62755;-33.398;-70.572;2022-09-04T14:06:56;19.70;28.50
74336;DHT22;62755;-33.398;-70.572;2022-09-04T14:09:35;19.90;28.50
74336;DHT22;62755;-33.398;-70.572;2022-09-04T14:12:29;20.10;28.80
74336;DHT22;62755;-33.398;-70.572;2022-09-04T14:18:32;22.50;28.00
74336;DHT22;62755;-33.398;-70.572;2022-09-04T14:21:09;25.50;25.40
74336;DHT22;62755;-33.398;-70.572;2022-09-04T14:23:47;28.00;25.40
74336;DHT22;62755;-33.398;-70.572;2022-09-04T14:26:31;30.30;21.60
74336;DHT22;62755;-33.398;-70.572;2022-09-04T14:29:08;31.80;21.20
74336;DHT22;62755;-33.398;-70.572;2022-09-04T14:31:47;33.00;21.00
74336;DHT22;62755;-33.398;-70.572;2022-09-04T14:34:28;34.00;20.20
74336;DHT22;62755;-33.398;-70.572;2022-09-04T14:37:09;35.00;19.60
74336;DHT22;62755;-33.398;-70.572;2022-09-04T14:39:47;35.80;18.70
74336;DHT22;62755;-33.398;-70.572;2022-09-04T14:45:17;36.40;18.40
74336;DHT22;62755;-33.398;-70.572;2022-09-04T14:47:52;36.40;18.80
74336;DHT22;62755;-33.398;-70.572;2022-09-04T14:50:25;36.90;18.40
74336;DHT22;62755;-33.398;-70.572;2022-09-04T14:52:58;37.10;18.50
74336;DHT22;62755;-33.398;-70.572;2022-09-04T14:55:32;37.40;18.30
74336;DHT22;62755;-33.398;-70.572;2022-09-04T14:58:08;37.50;18.00
74336;DHT22;62755;-33.398;-70.572;2022-09-04T15:00:55;37.00;18.10
74336;DHT22;62755;-33.398;-70.572;2022-09-04T15:03:29;36.60;18.60
74336;DHT22;62755;-33.398;-70.572;2022-09-04T15:06:06;36.10;18.60
74336;DHT22;62755;-33.398;-70.572;2022-09-04T15:08:42;35.60;19.50
74336;DHT22;62755;-33.398;-70.572;2022-09-04T15:11:26;34.70;20.30
74336;DHT22;62755;-33.398;-70.572;2022-09-04T15:13:57;33.40;20.90
74336;DHT22;62755;-33.398;-70.572;2022-09-04T15:16:43;32.20;21.50
74336;DHT22;62755;-33.398;-70.572;2022-09-04T15:19:28;31.50;22.10
74336;DHT22;62755;-33.398;-70.572;2022-09-04T15:22:03;31.10;22.30
74336;DHT22;62755;-33.398;-70.572;2022-09-04T15:24:37;30.50;22.70
74336;DHT22;62755;-33.398;-70.572;2022-09-04T15:27:15;30.30;22.80
74336;DHT22;62755;-33.398;-70.572;2022-09-04T15:29:57;30.10;22.90
74336;DHT22;62755;-33.398;-70.572;2022-09-04T15:32:31;30.00;22.70
74336;DHT22;62755;-33.398;-70.572;2022-09-04T15:35:07;30.10;22.80
74336;DHT22;62755;-33.398;-70.572;2022-09-04T15:37:42;30.30;22.10
74336;DHT22;62755;-33.398;-70.572;2022-09-04T15:40:20;30.30;21.80
74336;DHT22;62755;-33.398;-70.572;2022-09-04T15:43:07;30.20;21.50
74336;DHT22;62755;-33.398;-70.572;2022-09-04T15:45:44;30.30;21.40
74336;DHT22;62755;-33.398;-70.572;2022-09-04T15:48:31;30.30;21.50
74336;DHT22;62755;-33.398;-70.572;2022-09-04T15:51:18;30.50;21.20
74336;DHT22;62755;-33.398;-70.572;2022-09-04T15:54:05;30.50;21.10
74336;DHT22;62755;-33.398;-70.572;2022-09-04T15:56:38;30.50;21.40
74336;DHT22;62755;-33.398;-70.572;2022-09-04T15:59:15;30.50;21.50
74336;DHT22;62755;-33.398;-70.572;2022-09-04T16:01:51;30.50;21.50
74336;DHT22;62755;-33.398;-70.572;2022-09-04T16:04:31;30.60;21.70
74336;DHT22;62755;-33.398;-70.572;2022-09-04T16:07:29;30.70;21.30
74336;DHT22;62755;-33.398;-70.572;2022-09-04T16:10:09;30.70;21.20
74336;DHT22;62755;-33.398;-70.572;2022-09-04T16:12:48;30.70;21.20
74336;DHT22;62755;-33.398;-70.572;2022-09-04T16:15:23;30.70;21.40
74336;DHT22;62755;-33.398;-70.572;2022-09-04T16:17:53;30.80;21.50
74336;DHT22;62755;-33.398;-70.572;2022-09-04T16:20:29;30.80;21.50
74336;DHT22;62755;-33.398;-70.572;2022-09-04T16:23:03;30.80;21.40
74336;DHT22;62755;-33.398;-70.572;2022-09-04T16:25:36;30.70;21.50
74336;DHT22;62755;-33.398;-70.572;2022-09-04T16:28:09;30.80;21.10
74336;DHT22;62755;-33.398;-70.572;2022-09-04T16:30:44;30.90;21.10
74336;DHT22;62755;-33.398;-70.572;2022-09-04T16:33:24;31.10;21.00
74336;DHT22;62755;-33.398;-70.572;2022-09-04T16:35:59;31.00;20.70
74336;DHT22;62755;-33.398;-70.572;2022-09-04T16:38:33;31.00;20.80
74336;DHT22;62755;-33.398;-70.572;2022-09-04T16:41:12;31.00;20.70
74336;DHT22;62755;-33.398;-70.572;2022-09-04T16:44:08;31.00;21.60
74336;DHT22;62755;-33.398;-70.572;2022-09-04T16:46:45;31.00;21.50
74336;DHT22;62755;-33.398;-70.572;2022-09-04T16:49:37;31.00;21.00
74336;DHT22;62755;-33.398;-70.572;2022-09-04T16:52:31;31.10;21.10
74336;DHT22;62755;-33.398;-70.572;2022-09-04T16:55:06;31.10;20.80
74336;DHT22;62755;-33.398;-70.572;2022-09-04T16:57:42;31.20;20.80
74336;DHT22;62755;-33.398;-70.572;2022-09-04T17:00:17;31.20;21.00
74336;DHT22;62755;-33.398;-70.572;2022-09-04T17:02:53;31.10;21.10
74336;DHT22;62755;-33.398;-70.572;2022-09-04T17:05:27;31.20;21.10
74336;DHT22;62755;-33.398;-70.572;2022-09-04T17:08:12;31.30;20.90
74336;DHT22;62755;-33.398;-70.572;2022-09-04T17:10:45;31.30;21.10
74336;DHT22;62755;-33.398;-70.572;2022-09-04T17:13:20;31.30;21.10
74336;DHT22;62755;-33.398;-70.572;2022-09-04T17:15:55;31.30;20.90
74336;DHT22;62755;-33.398;-70.572;2022-09-04T17:18:28;31.20;21.10
74336;DHT22;62755;-33.398;-70.572;2022-09-04T17:21:05;31.30;21.20
74336;DHT22;62755;-33.398;-70.572;2022-09-04T17:23:58;31.30;20.70
74336;DHT22;62755;-33.398;-70.572;2022-09-04T17:26:34;31.40;21.00
74336;DHT22;62755;-33.398;-70.572;2022-09-04T17:29:07;31.40;20.50
74336;DHT22;62755;-33.398;-70.572;2022-09-04T17:31:43;31.40;20.70
74336;DHT22;62755;-33.398;-70.572;2022-09-04T17:34:40;31.50;20.70
74336;DHT22;62755;-33.398;-70.572;2022-09-04T17:37:13;31.50;20.70
74336;DHT22;62755;-33.398;-70.572;2022-09-04T17:39:49;31.60;21.00
74336;DHT22;62755;-33.398;-70.572;2022-09-04T17:42:23;31.70;20.90
74336;DHT22;62755;-33.398;-70.572;2022-09-04T17:45:01;31.60;20.80
74336;DHT22;62755;-33.398;-70.572;2022-09-04T17:47:33;31.60;20.90
74336;DHT22;62755;-33.398;-70.572;2022-09-04T17:50:12;31.60;21.10
74336;DHT22;62755;-33.398;-70.572;2022-09-04T17:53:03;31.70;20.70
74336;DHT22;62755;-33.398;-70.572;2022-09-04T17:55:45;31.80;20.90
74336;DHT22;62755;-33.398;-70.572;2022-09-04T17:58:24;31.90;20.50
74336;DHT22;62755;-33.398;-70.572;2022-09-04T18:00:58;31.90;20.40
74336;DHT22;62755;-33.398;-70.572;2022-09-04T18:03:36;31.90;20.70
74336;DHT22;62755;-33.398;-70.572;2022-09-04T18:06:10;32.00;20.30
74336;DHT22;62755;-33.398;-70.572;2022-09-04T18:08:47;32.00;20.30
74336;DHT22;62755;-33.398;-70.572;2022-09-04T18:11:23;32.00;19.80
74336;DHT22;62755;-33.398;-70.572;2022-09-04T18:14:05;32.00;20.00
74336;DHT22;62755;-33.398;-70.572;2022-09-04T18:16:56;32.00;20.10
74336;DHT22;62755;-33.398;-70.572;2022-09-04T18:19:30;32.00;19.80
74336;DHT22;62755;-33.398;-70.572;2022-09-04T18:22:05;32.00;19.80
74336;DHT22;62755;-33.398;-70.572;2022-09-04T18:24:38;32.00;19.80